Time;durP1;ratioP1;P1;durP2;ratioP2;P2;SDS_P1;SDS_P2;PMS_P1;PMS_P2;Temp;Humidity;BMP_temperature;BMP_pressure;BME280_temperature;BME280_humidity;BME280_pressure;Samples;Min_cycle;Max_cycle;Signal;HPM_P1;HPM_P2
2022/06/03 00:02:33;;;;;;;3.72;2.27;;;;;;;18.38;100.00;101049.77;1769177;80;21037;-83
2022/06/03 00:05:30;;;;;;;4.28;2.45;;;;;;;18.41;100.00;101049.43;1750889;80;21578;-83
2022/06/03 00:08:12;;;;;;;5.72;2.40;;;;;;;18.46;100.00;101051.13;1772409;80;20995;-83
2022/06/03 00:11:20;;;;;;;4.92;2.37;;;;;;;18.53;100.00;101052.62;1772528;80;21097;-83
2022/06/03 00:14:02;;;;;;;6.87;2.65;;;;;;;18.58;100.00;101057.77;1777298;80;21775;-82
2022/06/03 00:16:58;;;;;;;2.35;2.15;;;;;;;18.64;100.00;101058.11;1740468;80;21069;-84
2022/06/03 00:19:59;;;;;;;4.30;2.58;;;;;;;18.69;100.00;101057.98;1776769;80;21523;-82
2022/06/03 00:23:04;;;;;;;4.20;2.27;;;;;;;18.77;100.00;101054.56;1772689;80;21085;-82
2022/06/03 00:26:07;;;;;;;2.25;2.00;;;;;;;18.83;100.00;101049.15;1776396;80;21096;-83
2022/06/03 00:28:46;;;;;;;2.55;2.17;;;;;;;18.84;100.00;101046.34;1744347;80;21966;-84
2022/06/03 00:31:40;;;;;;;4.37;1.98;;;;;;;18.82;100.00;101039.58;1775362;80;21109;-84
2022/06/03 00:34:33;;;;;;;3.77;2.42;;;;;;;18.75;100.00;101038.06;1762608;81;21145;-83
2022/06/03 00:37:06;;;;;;;2.00;1.90;;;;;;;18.72;100.00;101035.73;1766447;81;21070;-83
2022/06/03 00:40:06;;;;;;;2.77;2.05;;;;;;;18.70;100.00;101037.22;1762047;81;21690;-83
2022/06/03 00:43:24;;;;;;;5.70;1.82;;;;;;;18.72;100.00;101035.25;1766013;81;21064;-83
2022/06/03 00:46:16;;;;;;;2.50;2.15;;;;;;;18.76;100.00;101037.08;1766137;80;21015;-84
2022/06/03 00:49:23;;;;;;;2.17;1.90;;;;;;;18.79;100.00;101030.14;1765928;80;21575;-83
2022/06/03 00:52:39;;;;;;;3.87;2.10;;;;;;;18.81;100.00;101028.19;1695826;81;21014;-85
2022/06/03 00:55:39;;;;;;;2.52;2.12;;;;;;;18.81;100.00;101024.73;1766040;80;21073;-83
2022/06/03 00:58:47;;;;;;;3.15;1.62;;;;;;;18.80;100.00;101027.03;1762665;81;21154;-84
2022/06/03 01:01:28;;;;;;;2.75;1.77;;;;;;;18.79;100.00;101026.70;1656865;84;21153;-85
2022/06/03 01:04:13;;;;;;;2.72;2.00;;;;;;;18.76;100.00;101024.70;1680727;84;21007;-84
2022/06/03 01:07:23;;;;;;;4.53;1.95;;;;;;;18.72;100.00;101027.34;1742018;81;21070;-84
2022/06/03 01:10:12;;;;;;;2.95;2.20;;;;;;;18.69;100.00;101032.11;1762624;81;21574;-83
2022/06/03 01:12:57;;;;;;;4.20;2.55;;;;;;;18.63;100.00;101027.47;1742073;81;21159;-84
2022/06/03 01:15:45;;;;;;;2.72;2.27;;;;;;;18.57;100.00;101035.02;1760952;81;21019;-83
2022/06/03 01:18:24;;;;;;;3.92;2.30;;;;;;;18.52;100.00;101032.51;1750578;80;21508;-84
2022/06/03 01:21:18;;;;;;;3.25;2.37;;;;;;;18.49;100.00;101037.61;1762327;81;21666;-84
2022/06/03 01:24:06;;;;;;;2.50;2.30;;;;;;;18.49;100.00;101039.44;1765890;80;21536;-82
2022/06/03 01:26:48;;;;;;;5.78;2.52;;;;;;;18.45;100.00;101052.11;1762646;81;21657;-82
2022/06/03 01:29:55;;;;;;;4.58;2.30;;;;;;;18.42;100.00;101042.70;1761710;80;21069;-82
2022/06/03 01:33:05;;;;;;;3.52;2.47;;;;;;;18.42;100.00;101050.61;1772782;80;21097;-82
2022/06/03 01:36:13;;;;;;;3.17;2.30;;;;;;;18.38;100.00;101053.21;1667771;84;21577;-83
2022/06/03 01:39:07;;;;;;;6.22;2.70;;;;;;;18.34;100.00;101058.95;1754763;80;20954;-83
2022/06/03 01:41:52;;;;;;;2.87;2.10;;;;;;;18.27;100.00;101056.09;1779920;80;21920;-83
2022/06/03 01:44:36;;;;;;;3.92;2.60;;;;;;;18.24;100.00;101058.55;1778651;80;21017;-85
2022/06/03 01:47:32;;;;;;;5.17;2.77;;;;;;;18.24;100.00;101062.52;1722041;80;21061;-82
2022/06/03 01:50:21;;;;;;;2.77;2.25;;;;;;;18.20;100.00;101054.59;1779898;79;21049;-84
2022/06/03 01:53:20;;;;;;;2.85;2.52;;;;;;;18.19;100.00;101060.84;1780417;79;21034;-84
2022/06/03 01:56:16;;;;;;;6.25;2.52;;;;;;;18.16;100.00;101054.55;1779106;80;21906;-83
2022/06/03 01:59:12;;;;;;;3.08;2.77;;;;;;;18.14;100.00;101060.48;1775825;80;21113;-84
2022/06/03 02:02:26;;;;;;;2.60;2.40;;;;;;;18.17;100.00;101058.84;1780023;79;21045;-84
2022/06/03 02:05:36;;;;;;;4.17;2.98;;;;;;;18.18;100.00;101068.41;1779838;79;21666;-84
2022/06/03 02:08:37;;;;;;;4.90;2.67;;;;;;;18.19;100.00;101070.06;1779920;80;21089;-83
2022/06/03 02:11:19;;;;;;;4.28;2.77;;;;;;;18.15;100.00;101070.02;1682052;82;21209;-84
2022/06/03 02:14:30;;;;;;;5.15;2.45;;;;;;;18.06;100.00;101074.92;1725847;82;21664;-84
2022/06/03 02:17:26;;;;;;;3.65;2.58;;;;;;;18.01;100.00;101077.17;1775750;79;21097;-84
2022/06/03 02:20:28;;;;;;;3.67;2.90;;;;;;;17.92;100.00;101087.61;1779968;80;21144;-84
2022/06/03 02:23:20;;;;;;;2.83;2.55;;;;;;;17.85;100.00;101081.80;1775406;80;21069;-82
2022/06/03 02:26:14;;;;;;;4.87;3.02;;;;;;;17.74;100.00;101078.91;1727436;80;21883;-84
2022/06/03 02:32:35;;;;;;;4.58;3.10;;;;;;;17.65;100.00;101074.89;1707313;80;21082;-83
2022/06/03 02:35:42;;;;;;;5.53;2.98;;;;;;;17.61;100.00;101083.23;1761737;81;21156;-84
2022/06/03 02:38:38;;;;;;;4.65;2.75;;;;;;;17.61;100.00;101079.29;1721797;81;21073;-83
2022/06/03 02:41:25;;;;;;;4.40;3.02;;;;;;;17.60;100.00;101085.03;1776958;80;21083;-84
2022/06/03 02:44:19;;;;;;;3.20;2.80;;;;;;;17.60;100.00;101081.08;1756774;81;21591;-84
2022/06/03 02:47:16;;;;;;;3.75;2.65;;;;;;;17.64;100.00;101085.55;1747991;81;21583;-83
2022/06/03 02:50:16;;;;;;;3.92;3.00;;;;;;;17.74;100.00;101083.68;1649462;81;21062;-82
2022/06/03 02:53:17;;;;;;;3.35;2.85;;;;;;;17.87;100.00;101090.36;1755242;81;21572;-82
2022/06/03 02:56:09;;;;;;;3.25;2.65;;;;;;;17.95;100.00;101087.34;1749900;81;21223;-84
2022/06/03 02:59:03;;;;;;;5.30;2.80;;;;;;;18.01;100.00;101094.30;1751607;81;21125;-83
2022/06/03 03:01:38;;;;;;;6.03;2.90;;;;;;;18.07;100.00;101097.63;1751355;81;21448;-83
2022/06/03 03:04:26;;;;;;;4.25;2.90;;;;;;;18.13;100.00;101109.72;1749000;81;21002;-82
2022/06/03 03:07:45;;;;;;;6.92;3.05;;;;;;;18.20;100.00;101113.05;1754351;81;21022;-82
2022/06/03 03:10:55;;;;;;;6.83;3.23;;;;;;;18.22;100.00;101119.84;1755424;81;21154;-83
2022/06/03 03:13:53;;;;;;;4.40;2.70;;;;;;;18.22;100.00;101125.59;1776868;80;21045;-82
2022/06/03 03:16:26;;;;;;;6.05;3.22;;;;;;;18.25;100.00;101120.02;1761505;81;21093;-81
2022/06/03 03:19:18;;;;;;;6.00;2.85;;;;;;;18.32;100.00;101126.80;1772279;80;21045;-82
2022/06/03 03:22:06;;;;;;;6.85;3.58;;;;;;;18.39;100.00;101127.84;1761793;81;21043;-81
